Time;durP1;ratioP1;P1;durP2;ratioP2;P2;SDS_P1;SDS_P2;PMS_P1;PMS_P2;Temp;Humidity;BMP_temperature;BMP_pressure;BME280_temperature;BME280_humidity;BME280_pressure;Samples;Min_cycle;Max_cycle;Signal;HPM_P1;HPM_P2
2024/01/25 00:02:20;;;;;;;7.33;3.10;;;9.60;99.90;;;;;;4958515;28;20996;-68
2024/01/25 00:04:46;;;;;;;7.30;2.17;;;9.50;99.90;;;;;;4958755;28;20494;-68
2024/01/25 00:07:13;;;;;;;12.17;4.27;;;9.50;99.90;;;;;;4954624;28;20479;-69
2024/01/25 00:09:40;;;;;;;8.20;2.77;;;9.50;99.90;;;;;;4960285;28;20968;-68
2024/01/25 00:12:07;;;;;;;7.37;3.23;;;9.50;99.90;;;;;;4954597;28;20478;-68
2024/01/25 00:14:34;;;;;;;7.03;4.23;;;9.50;99.90;;;;;;4959473;28;20470;-68
2024/01/25 00:17:00;;;;;;;15.70;3.13;;;9.60;99.90;;;;;;4960346;28;20455;-68
2024/01/25 00:19:28;;;;;;;8.27;4.57;;;9.50;99.90;;;;;;4957535;28;20468;-69
2024/01/25 00:21:55;;;;;;;8.20;3.57;;;9.50;99.90;;;;;;4956668;28;20466;-67
2024/01/25 00:24:22;;;;;;;12.33;2.60;;;9.50;99.90;;;;;;4958987;28;20977;-67
2024/01/25 00:26:48;;;;;;;9.63;3.33;;;9.50;99.90;;;;;;4955857;28;20493;-67
2024/01/25 00:29:17;;;;;;;14.73;3.40;;;9.40;99.90;;;;;;4962431;28;20486;-67
2024/01/25 00:31:44;;;;;;;11.37;3.17;;;9.40;99.90;;;;;;4954410;28;20989;-68
2024/01/25 00:34:11;;;;;;;18.03;3.17;;;9.40;99.90;;;;;;4961517;28;20477;-67
2024/01/25 00:36:40;;;;;;;8.00;2.67;;;9.40;99.90;;;;;;4959596;28;20483;-67
2024/01/25 00:39:08;;;;;;;8.47;3.10;;;9.40;99.90;;;;;;4958740;28;20463;-68
2024/01/25 00:41:36;;;;;;;2.30;1.77;;;9.50;99.90;;;;;;4958872;28;20984;-67
2024/01/25 00:44:03;;;;;;;11.10;3.07;;;9.50;99.90;;;;;;4956372;28;21229;-68
2024/01/25 00:46:31;;;;;;;13.53;2.70;;;9.50;99.90;;;;;;4960227;28;20489;-68
2024/01/25 00:48:59;;;;;;;18.60;5.43;;;9.40;99.90;;;;;;4959635;28;20466;-68
2024/01/25 00:51:26;;;;;;;5.97;3.40;;;9.40;99.90;;;;;;4959056;28;20500;-68
2024/01/25 00:53:55;;;;;;;12.13;2.90;;;9.40;99.90;;;;;;4956909;28;20467;-67
2024/01/25 00:56:22;;;;;;;15.90;2.90;;;9.40;99.90;;;;;;4961255;28;20490;-67
2024/01/25 00:58:49;;;;;;;18.97;2.67;;;9.40;99.90;;;;;;4957591;28;20938;-68
2024/01/25 01:01:17;;;;;;;6.27;2.40;;;9.30;99.90;;;;;;4956732;28;20467;-68
2024/01/25 01:03:44;;;;;;;3.80;2.33;;;9.30;99.90;;;;;;4962895;28;20465;-68
2024/01/25 01:06:11;;;;;;;4.30;2.77;;;9.30;99.90;;;;;;4957400;28;20483;-67
2024/01/25 01:08:39;;;;;;;14.23;5.40;;;9.30;99.90;;;;;;4965853;28;20456;-68
2024/01/25 01:11:07;;;;;;;5.43;2.30;;;9.20;99.90;;;;;;4964817;28;20449;-67
2024/01/25 01:13:33;;;;;;;5.57;2.47;;;9.10;99.90;;;;;;4954532;28;20450;-68
2024/01/25 01:16:00;;;;;;;7.03;2.67;;;9.20;99.90;;;;;;4954124;28;20456;-68
2024/01/25 01:18:27;;;;;;;8.53;3.80;;;9.10;99.90;;;;;;4962667;28;20471;-68
2024/01/25 01:20:53;;;;;;;9.17;3.40;;;9.10;99.90;;;;;;4947578;28;20455;-67
2024/01/25 01:23:20;;;;;;;8.07;3.33;;;9.00;99.90;;;;;;4954433;28;20587;-68
2024/01/25 01:25:47;;;;;;;8.70;3.00;;;8.90;99.90;;;;;;4953451;28;20486;-68
2024/01/25 01:28:15;;;;;;;17.40;4.60;;;8.90;99.90;;;;;;4945161;28;20470;-68
2024/01/25 01:30:42;;;;;;;13.00;2.70;;;9.00;99.90;;;;;;4959352;28;20463;-68
2024/01/25 01:33:09;;;;;;;9.40;2.90;;;9.10;99.90;;;;;;4959129;28;20555;-68
2024/01/25 01:35:36;;;;;;;11.17;2.90;;;9.20;99.90;;;;;;4955607;28;20491;-67
2024/01/25 01:38:03;;;;;;;10.50;3.70;;;9.10;99.90;;;;;;4954949;28;20459;-68
2024/01/25 01:40:29;;;;;;;6.90;2.57;;;9.10;99.90;;;;;;5142351;23;20592;-67
2024/01/25 01:43:00;;;;;;;5.43;2.60;;;9.10;99.90;;;;;;4979153;28;20465;-66
2024/01/25 01:45:29;;;;;;;28.33;4.50;;;9.10;99.90;;;;;;4974985;28;20250;-68
2024/01/25 01:47:59;;;;;;;16.40;2.50;;;9.10;99.90;;;;;;4984045;28;20496;-68
2024/01/25 01:50:26;;;;;;;4.53;1.73;;;9.10;99.90;;;;;;4994856;28;20483;-67
2024/01/25 01:52:54;;;;;;;5.80;2.83;;;9.20;99.90;;;;;;4984237;28;20443;-67
2024/01/25 01:55:23;;;;;;;11.97;3.63;;;9.10;99.90;;;;;;4980300;28;20489;-68
2024/01/25 01:57:49;;;;;;;12.77;3.30;;;9.10;99.90;;;;;;4983308;28;20457;-68
2024/01/25 02:00:17;;;;;;;6.17;2.80;;;9.20;99.90;;;;;;4989003;28;20465;-67
2024/01/25 02:02:45;;;;;;;9.17;3.33;;;9.10;99.90;;;;;;4981675;28;20461;-67
2024/01/25 02:05:12;;;;;;;10.83;2.87;;;9.10;99.90;;;;;;4988778;28;20480;-67
2024/01/25 02:07:41;;;;;;;26.57;4.57;;;9.00;99.90;;;;;;4990588;28;20481;-67
2024/01/25 02:10:09;;;;;;;8.90;2.00;;;9.10;99.90;;;;;;4988866;28;20764;-67
2024/01/25 02:12:36;;;;;;;4.80;1.83;;;9.10;99.90;;;;;;4978155;28;20461;-67
2024/01/25 02:15:03;;;;;;;14.50;3.17;;;9.10;99.90;;;;;;4987269;28;20905;-67
2024/01/25 02:17:30;;;;;;;13.97;3.27;;;9.00;99.90;;;;;;4993562;28;20465;-67
2024/01/25 02:19:58;;;;;;;7.03;2.53;;;9.10;99.90;;;;;;4987876;28;20462;-67
2024/01/25 02:22:26;;;;;;;49.80;4.30;;;9.10;99.90;;;;;;4991710;28;20461;-67
2024/01/25 02:24:53;;;;;;;7.00;3.17;;;9.00;99.90;;;;;;4986045;28;20485;-67
2024/01/25 02:27:19;;;;;;;11.40;3.37;;;9.00;99.90;;;;;;4994110;28;20485;-67
2024/01/25 02:29:46;;;;;;;13.00;2.70;;;8.90;99.90;;;;;;4996996;28;20480;-67
2024/01/25 02:32:13;;;;;;;3.90;2.50;;;8.80;99.90;;;;;;4997018;28;20508;-67
2024/01/25 02:34:40;;;;;;;5.33;3.17;;;8.80;99.90;;;;;;4997766;28;22690;-67
2024/01/25 02:37:07;;;;;;;17.00;2.47;;;8.80;99.90;;;;;;4997986;28;20465;-68
2024/01/25 02:39:35;;;;;;;5.30;3.20;;;8.70;99.90;;;;;;4994449;28;20472;-67
2024/01/25 02:42:01;;;;;;;4.40;2.80;;;8.60;99.90;;;;;;4999909;28;20488;-67
2024/01/25 02:44:28;;;;;;;21.33;3.03;;;8.50;99.90;;;;;;4993489;28;21151;-67
2024/01/25 02:46:55;;;;;;;9.47;2.60;;;8.50;99.90;;;;;;4990153;28;20477;-67
2024/01/25 02:49:23;;;;;;;5.80;2.57;;;8.50;99.90;;;;;;4997872;28;20477;-67
2024/01/25 02:51:50;;;;;;;8.30;3.03;;;8.40;99.90;;;;;;4994497;28;20461;-67
2024/01/25 02:54:17;;;;;;;6.77;2.50;;;8.30;99.90;;;;;;5003189;28;20460;-67
2024/01/25 02:56:45;;;;;;;9.60;4.50;;;8.30;99.90;;;;;;4999705;28;20544;-67
2024/01/25 02:59:12;;;;;;;7.70;3.03;;;8.40;99.90;;;;;;5002592;28;20464;-67
2024/01/25 03:01:40;;;;;;;17.40;3.20;;;8.30;99.90;;;;;;4999621;28;20461;-68
2024/01/25 03:04:07;;;;;;;17.17;2.80;;;8.30;99.90;;;;;;5004259;28;20457;-67
2024/01/25 03:06:34;;;;;;;10.33;2.53;;;8.30;99.90;;;;;;5000939;28;20843;-67
2024/01/25 03:09:00;;;;;;;29.83;3.30;;;8.20;99.90;;;;;;5000995;28;20843;-68
2024/01/25 03:11:27;;;;;;;13.07;2.40;;;8.20;99.90;;;;;;4999366;28;21347;-67
2024/01/25 03:13:55;;;;;;;7.07;2.37;;;8.20;99.90;;;;;;4999672;28;20461;-68
2024/01/25 03:16:22;;;;;;;15.53;3.30;;;8.20;99.90;;;;;;5000440;28;20977;-67
2024/01/25 03:18:49;;;;;;;11.57;3.50;;;8.20;99.90;;;;;;5002604;28;20475;-67
2024/01/25 03:21:15;;;;;;;10.33;4.40;;;8.20;99.90;;;;;;4993983;28;20464;-67
2024/01/25 03:23:42;;;;;;;18.67;2.83;;;8.10;99.90;;;;;;5001989;28;20456;-67
2024/01/25 03:26:09;;;;;;;8.53;4.23;;;8.00;99.90;;;;;;5002460;28;20520;-67
2024/01/25 03:28:37;;;;;;;4.63;3.03;;;8.00;99.90;;;;;;5003878;28;20805;-67
2024/01/25 03:31:05;;;;;;;2.57;2.33;;;7.90;99.90;;;;;;5002559;28;20531;-67
2024/01/25 03:33:32;;;;;;;20.63;3.57;;;7.90;99.90;;;;;;5003888;28;20501;-67
2024/01/25 03:36:02;;;;;;;10.47;3.53;;;7.80;99.90;;;;;;4996374;28;20485;-67
2024/01/25 03:38:29;;;;;;;10.63;2.83;;;7.80;99.90;;;;;;5001647;28;21014;-67
2024/01/25 03:40:56;;;;;;;5.07;2.60;;;7.70;99.90;;;;;;4999681;28;20448;-68
2024/01/25 03:43:23;;;;;;;4.83;1.50;;;7.80;99.90;;;;;;4998122;28;20569;-67
2024/01/25 03:45:50;;;;;;;6.50;2.40;;;7.80;99.90;;;;;;5002714;28;20496;-67
2024/01/25 03:48:18;;;;;;;23.83;4.07;;;7.70;99.90;;;;;;4996550;28;20497;-67
2024/01/25 03:50:45;;;;;;;5.60;2.63;;;7.80;99.90;;;;;;4991671;28;20509;-67
2024/01/25 03:53:12;;;;;;;22.57;2.27;;;7.70;99.90;;;;;;4993097;28;20466;-67
2024/01/25 03:55:39;;;;;;;17.83;3.00;;;7.70;99.90;;;;;;4991268;28;20485;-68
2024/01/25 03:58:05;;;;;;;6.70;2.60;;;7.70;99.90;;;;;;4996533;28;20483;-68
2024/01/25 04:00:32;;;;;;;16.33;4.30;;;7.70;99.90;;;;;;4994545;28;20472;-68
2024/01/25 04:02:59;;;;;;;15.40;4.47;;;7.60;99.90;;;;;;4992180;28;20458;-67
2024/01/25 04:05:27;;;;;;;6.90;2.37;;;7.70;99.90;;;;;;5000573;28;20492;-68
2024/01/25 04:07:54;;;;;;;17.17;3.70;;;7.60;99.90;;;;;;5000683;28;20492;-68
2024/01/25 04:10:20;;;;;;;9.10;3.20;;;7.50;99.90;;;;;;5001339;28;20833;-67
2024/01/25 04:12:47;;;;;;;33.87;4.10;;;7.50;99.90;;;;;;4996387;28;20456;-67
2024/01/25 04:15:14;;;;;;;18.10;4.57;;;7.50;99.90;;;;;;4995594;28;20838;-67
2024/01/25 04:17:41;;;;;;;6.63;1.90;;;7.50;99.90;;;;;;4993577;28;21141;-67
2024/01/25 04:20:08;;;;;;;2.33;2.10;;;7.50;99.90;;;;;;4995395;28;20465;-67
2024/01/25 04:22:37;;;;;;;18.00;4.70;;;7.50;99.90;;;;;;4999181;28;20469;-67
2024/01/25 04:25:04;;;;;;;16.50;3.03;;;7.40;99.90;;;;;;4990237;28;20485;-67
2024/01/25 04:27:31;;;;;;;13.23;3.90;;;7.40;99.90;;;;;;4996582;28;20473;-67
2024/01/25 04:29:58;;;;;;;10.70;2.97;;;7.40;99.90;;;;;;4995154;28;20833;-67
2024/01/25 04:32:24;;;;;;;5.80;4.03;;;7.40;99.90;;;;;;4990897;28;20555;-67
2024/01/25 04:34:51;;;;;;;12.63;2.90;;;7.30;99.90;;;;;;4992919;28;20459;-67
2024/01/25 04:37:18;;;;;;;5.27;2.80;;;7.30;99.90;;;;;;4996046;28;20458;-67
2024/01/25 04:39:46;;;;;;;8.40;3.37;;;7.30;99.90;;;;;;4994706;28;20454;-67
2024/01/25 04:42:13;;;;;;;6.67;2.60;;;7.30;99.90;;;;;;4994880;28;20832;-67
2024/01/25 04:44:39;;;;;;;7.93;3.90;;;7.30;99.90;;;;;;4993324;28;20489;-67
2024/01/25 04:47:06;;;;;;;10.40;3.73;;;7.20;99.90;;;;;;4993247;28;20468;-67
2024/01/25 04:49:33;;;;;;;6.33;3.43;;;7.20;99.90;;;;;;4997822;28;20456;-68
2024/01/25 04:52:00;;;;;;;12.53;2.33;;;7.10;99.90;;;;;;4992081;28;20948;-67
2024/01/25 04:54:27;;;;;;;2.60;2.33;;;7.20;99.90;;;;;;4992684;28;20526;-67
2024/01/25 04:56:55;;;;;;;18.23;4.07;;;7.20;99.90;;;;;;4996488;28;20512;-67
2024/01/25 04:59:22;;;;;;;11.70;3.20;;;7.10;99.90;;;;;;5000472;28;20470;-67
2024/01/25 05:01:49;;;;;;;4.90;2.60;;;7.10;99.90;;;;;;5000993;28;20453;-67
2024/01/25 05:04:17;;;;;;;10.80;3.10;;;7.10;99.90;;;;;;5001503;28;21001;-67
2024/01/25 05:06:44;;;;;;;6.13;2.80;;;7.10;99.90;;;;;;4998274;28;20488;-67
2024/01/25 05:09:10;;;;;;;6.33;1.93;;;7.10;99.90;;;;;;4988890;28;20489;-67
2024/01/25 05:11:39;;;;;;;12.07;3.57;;;7.10;99.90;;;;;;4988805;28;20464;-67
2024/01/25 05:14:08;;;;;;;5.97;2.50;;;7.10;99.90;;;;;;4996539;28;20468;-67
2024/01/25 05:16:35;;;;;;;9.73;3.17;;;7.00;99.90;;;;;;4994026;28;20459;-68
2024/01/25 05:19:01;;;;;;;8.73;2.40;;;7.10;99.90;;;;;;4996154;28;20465;-68
2024/01/25 05:21:36;;;;;;;16.20;2.80;;;7.00;99.90;;;;;;4992257;28;20465;-68
2024/01/25 05:24:02;;;;;;;24.87;3.70;;;7.00;99.90;;;;;;4998937;28;20467;-68
2024/01/25 05:26:29;;;;;;;4.70;2.53;;;7.00;99.90;;;;;;4991273;28;20479;-68
2024/01/25 05:28:56;;;;;;;5.60;3.13;;;6.90;99.90;;;;;;4993111;28;20496;-68
2024/01/25 05:31:24;;;;;;;15.93;3.47;;;6.90;99.90;;;;;;4995018;28;20476;-67
2024/01/25 05:33:51;;;;;;;11.83;3.40;;;6.90;99.90;;;;;;5002062;28;20465;-67
2024/01/25 05:36:17;;;;;;;34.67;5.20;;;6.90;99.90;;;;;;4996391;28;20496;-67
2024/01/25 05:38:44;;;;;;;5.50;3.40;;;6.80;99.90;;;;;;4995519;28;20462;-67
2024/01/25 05:41:11;;;;;;;8.80;3.07;;;6.80;99.90;;;;;;4994950;28;20473;-68
2024/01/25 05:43:38;;;;;;;7.63;3.13;;;6.80;99.90;;;;;;4997580;28;20466;-67
2024/01/25 05:46:05;;;;;;;6.77;2.37;;;6.80;99.90;;;;;;4994071;28;20477;-67
2024/01/25 05:48:33;;;;;;;13.00;3.33;;;6.70;99.90;;;;;;4994303;28;20493;-67
2024/01/25 05:51:00;;;;;;;22.67;4.10;;;6.60;99.90;;;;;;4998699;28;20557;-68
2024/01/25 05:53:27;;;;;;;33.33;3.33;;;6.70;99.90;;;;;;4998598;28;20480;-67
2024/01/25 05:55:53;;;;;;;8.73;4.07;;;6.70;99.90;;;;;;5000764;28;20859;-67
2024/01/25 05:58:20;;;;;;;12.23;2.73;;;6.60;99.90;;;;;;4998281;28;20926;-66
2024/01/25 06:00:47;;;;;;;14.73;3.47;;;6.50;99.90;;;;;;4986942;28;20468;-67
2024/01/25 06:03:14;;;;;;;14.37;4.50;;;6.50;99.90;;;;;;4995096;28;20511;-67
2024/01/25 06:05:42;;;;;;;7.33;4.43;;;6.50;99.90;;;;;;4997954;28;20477;-67
2024/01/25 06:08:08;;;;;;;11.67;3.83;;;6.60;99.90;;;;;;4996437;28;20478;-67
2024/01/25 06:10:35;;;;;;;13.73;4.60;;;6.70;99.90;;;;;;4998380;28;20875;-67
2024/01/25 06:13:02;;;;;;;22.93;4.33;;;6.60;99.90;;;;;;5001854;28;20468;-67
2024/01/25 06:15:29;;;;;;;10.13;4.03;;;6.50;99.90;;;;;;4996712;28;20486;-67
2024/01/25 06:17:55;;;;;;;4.80;3.40;;;6.50;99.90;;;;;;4996735;28;20455;-67
2024/01/25 06:20:22;;;;;;;9.37;3.97;;;6.50;99.90;;;;;;4999019;28;20477;-67
2024/01/25 06:22:50;;;;;;;12.13;3.13;;;6.50;99.90;;;;;;5001547;28;20465;-67
2024/01/25 06:25:17;;;;;;;14.63;6.50;;;6.50;99.90;;;;;;4999150;28;20485;-67
2024/01/25 06:27:44;;;;;;;14.67;4.90;;;6.50;99.90;;;;;;5004683;28;20480;-67
2024/01/25 06:30:11;;;;;;;12.73;5.93;;;6.40;99.90;;;;;;4999904;28;20473;-67
2024/01/25 06:32:38;;;;;;;16.83;4.90;;;6.40;99.90;;;;;;4998250;28;20473;-67
2024/01/25 06:35:06;;;;;;;5.57;2.80;;;6.30;99.90;;;;;;5005226;28;20577;-67
2024/01/25 06:37:32;;;;;;;21.67;6.13;;;6.30;99.90;;;;;;5000863;28;20452;-68
2024/01/25 06:40:00;;;;;;;8.30;4.00;;;6.30;99.90;;;;;;5000470;28;20476;-68
2024/01/25 06:42:27;;;;;;;5.93;4.17;;;6.30;99.90;;;;;;5004951;28;20469;-68
2024/01/25 06:44:55;;;;;;;10.93;4.07;;;6.30;99.90;;;;;;4999442;28;20507;-68
2024/01/25 06:47:22;;;;;;;17.27;4.90;;;6.40;99.90;;;;;;4999763;28;20461;-68
2024/01/25 06:49:51;;;;;;;5.53;2.93;;;6.30;99.90;;;;;;4994737;28;20531;-68
2024/01/25 06:52:18;;;;;;;17.50;5.07;;;6.30;99.90;;;;;;5002703;28;20540;-68
2024/01/25 06:54:45;;;;;;;8.70;4.83;;;6.30;99.90;;;;;;5001204;28;20651;-68
2024/01/25 06:57:14;;;;;;;21.93;4.60;;;6.40;99.90;;;;;;5003242;28;20978;-68
2024/01/25 06:59:41;;;;;;;11.37;4.80;;;6.30;99.90;;;;;;5004559;28;20499;-68
2024/01/25 07:02:07;;;;;;;6.93;4.97;;;6.30;99.90;;;;;;5001128;28;20462;-68
2024/01/25 07:04:34;;;;;;;7.00;3.87;;;6.30;99.90;;;;;;5005788;28;20442;-68
2024/01/25 07:07:01;;;;;;;19.03;3.80;;;6.40;99.90;;;;;;5003766;28;20533;-68
2024/01/25 07:09:27;;;;;;;12.03;5.70;;;6.30;99.90;;;;;;5000099;28;20606;-68
2024/01/25 07:11:54;;;;;;;15.30;3.80;;;6.30;99.90;;;;;;5003201;28;20464;-68
2024/01/25 07:14:22;;;;;;;4.53;2.70;;;6.30;99.90;;;;;;5001458;28;20962;-68
2024/01/25 07:16:49;;;;;;;15.23;6.30;;;6.30;99.90;;;;;;5002564;28;20466;-68
2024/01/25 07:19:16;;;;;;;13.57;4.67;;;6.20;99.90;;;;;;5001864;28;21034;-68
2024/01/25 07:21:45;;;;;;;10.40;3.50;;;6.20;99.90;;;;;;5004981;28;20468;-68
2024/01/25 07:24:12;;;;;;;7.00;4.30;;;6.20;99.90;;;;;;5000476;28;20476;-68
2024/01/25 07:26:39;;;;;;;21.50;6.40;;;6.30;99.90;;;;;;4998168;28;20484;-68
2024/01/25 07:29:05;;;;;;;18.90;3.70;;;6.30;99.90;;;;;;5000941;28;20480;-68
2024/01/25 07:31:33;;;;;;;16.63;3.60;;;6.30;99.90;;;;;;4997367;28;20432;-68
2024/01/25 07:34:00;;;;;;;23.97;4.93;;;6.30;99.90;;;;;;5004182;28;20482;-68
2024/01/25 07:36:27;;;;;;;20.90;4.97;;;6.30;99.90;;;;;;5002558;28;20975;-67
2024/01/25 07:38:53;;;;;;;11.70;4.50;;;6.40;99.90;;;;;;5002678;28;20454;-68
2024/01/25 07:41:20;;;;;;;11.83;4.77;;;6.40;99.90;;;;;;5001884;28;20473;-68
2024/01/25 07:43:47;;;;;;;22.03;4.30;;;6.30;99.90;;;;;;4995132;28;20541;-67
2024/01/25 07:46:14;;;;;;;10.13;4.20;;;6.40;99.90;;;;;;5000199;28;20500;-68
2024/01/25 07:48:43;;;;;;;12.53;6.60;;;6.40;99.90;;;;;;4999428;28;20519;-67
2024/01/25 07:51:13;;;;;;;5.30;3.60;;;6.50;99.90;;;;;;5005143;28;20794;-67
2024/01/25 07:53:39;;;;;;;15.73;5.30;;;6.50;99.90;;;;;;5001794;28;20469;-67
2024/01/25 07:56:08;;;;;;;6.40;3.77;;;6.60;99.90;;;;;;5001649;28;20842;-67
2024/01/25 07:58:35;;;;;;;18.20;4.90;;;6.50;99.90;;;;;;5001659;28;20519;-67
2024/01/25 08:01:05;;;;;;;10.60;3.33;;;6.60;99.90;;;;;;5001093;28;20461;-67
2024/01/25 08:03:31;;;;;;;11.33;4.03;;;6.70;99.90;;;;;;5004724;28;20470;-67
2024/01/25 08:05:59;;;;;;;4.13;2.87;;;6.70;99.90;;;;;;5002694;28;20478;-67
2024/01/25 08:08:26;;;;;;;5.87;4.00;;;6.80;99.90;;;;;;4998723;28;20467;-67
2024/01/25 08:10:53;;;;;;;5.17;3.50;;;6.90;99.90;;;;;;5002400;28;20515;-67
2024/01/25 08:13:20;;;;;;;12.90;4.13;;;6.90;99.90;;;;;;5000940;28;20522;-67
2024/01/25 08:15:47;;;;;;;11.10;3.03;;;6.90;99.90;;;;;;5004100;28;20618;-67
2024/01/25 08:18:14;;;;;;;10.83;3.03;;;6.90;99.90;;;;;;5001070;28;20446;-67
2024/01/25 08:20:41;;;;;;;3.93;2.60;;;7.00;99.90;;;;;;4998503;28;20451;-67
2024/01/25 08:23:09;;;;;;;11.23;4.67;;;7.10;99.90;;;;;;4997223;28;21035;-67
2024/01/25 08:25:36;;;;;;;14.73;5.17;;;7.10;99.90;;;;;;5002289;28;20467;-67
2024/01/25 08:28:03;;;;;;;34.10;4.37;;;7.10;99.90;;;;;;5002407;28;20472;-68
2024/01/25 08:30:29;;;;;;;12.93;5.07;;;7.10;99.90;;;;;;4997543;28;20518;-67
2024/01/25 08:32:57;;;;;;;14.07;4.83;;;7.20;99.90;;;;;;5003695;28;20480;-68
2024/01/25 08:35:24;;;;;;;24.80;5.90;;;7.20;99.90;;;;;;5000031;28;20508;-67
2024/01/25 08:37:50;;;;;;;14.53;3.77;;;7.30;99.90;;;;;;5003526;28;20453;-67
2024/01/25 08:40:19;;;;;;;6.53;4.30;;;7.40;99.90;;;;;;4998620;28;20565;-68
2024/01/25 08:42:46;;;;;;;22.80;5.40;;;7.40;99.90;;;;;;5000352;28;20449;-67
2024/01/25 08:45:13;;;;;;;8.27;4.20;;;7.40;99.90;;;;;;5001012;28;20496;-67
2024/01/25 08:47:40;;;;;;;9.40;3.47;;;7.50;99.90;;;;;;4995677;28;20539;-67
2024/01/25 08:50:10;;;;;;;11.70;3.97;;;7.50;99.90;;;;;;4996930;28;20485;-67
2024/01/25 08:52:37;;;;;;;19.03;4.73;;;7.50;99.90;;;;;;5001985;28;20468;-67
2024/01/25 08:55:05;;;;;;;13.80;4.00;;;7.70;99.90;;;;;;5003298;28;20481;-68
2024/01/25 08:57:33;;;;;;;21.87;3.83;;;7.70;99.90;;;;;;5004550;28;20479;-68
2024/01/25 09:00:00;;;;;;;11.90;4.63;;;7.90;99.90;;;;;;4999494;28;20826;-67
2024/01/25 09:02:29;;;;;;;13.27;3.80;;;8.00;99.90;;;;;;4994903;28;20465;-67
2024/01/25 09:04:55;;;;;;;16.10;4.53;;;8.30;99.90;;;;;;5000903;28;20482;-67
2024/01/25 09:07:22;;;;;;;25.97;2.77;;;8.40;99.90;;;;;;5004260;28;20552;-67
2024/01/25 09:09:49;;;;;;;18.97;4.33;;;8.70;99.90;;;;;;5000901;28;20485;-67
2024/01/25 09:12:16;;;;;;;14.20;3.90;;;8.90;99.90;;;;;;4997705;28;20466;-67
2024/01/25 09:14:44;;;;;;;12.43;3.60;;;9.10;99.90;;;;;;4995688;28;20477;-67
2024/01/25 09:17:11;;;;;;;20.73;4.33;;;9.40;99.90;;;;;;5002040;28;20465;-68
2024/01/25 09:19:38;;;;;;;14.60;4.20;;;9.60;99.90;;;;;;4999029;28;20458;-68
2024/01/25 09:22:05;;;;;;;5.43;2.97;;;9.70;99.90;;;;;;4996873;28;20606;-67
2024/01/25 09:24:33;;;;;;;23.27;5.13;;;9.70;99.90;;;;;;5001489;28;20462;-67
2024/01/25 09:26:59;;;;;;;12.63;4.60;;;9.70;99.90;;;;;;4994959;28;20516;-68
2024/01/25 09:29:26;;;;;;;19.03;4.80;;;9.80;99.90;;;;;;4997760;28;21491;-67
2024/01/25 09:31:54;;;;;;;10.97;4.70;;;10.20;99.90;;;;;;4995358;28;20466;-68
2024/01/25 09:34:22;;;;;;;13.80;5.00;;;10.70;99.90;;;;;;4998344;28;20454;-67
2024/01/25 09:36:48;;;;;;;17.00;5.80;;;11.00;99.90;;;;;;4999911;28;20516;-67
2024/01/25 09:39:15;;;;;;;21.47;4.77;;;11.00;99.90;;;;;;4999628;28;20796;-67
2024/01/25 09:41:42;;;;;;;15.30;5.83;;;10.60;99.90;;;;;;4998306;28;20581;-67
2024/01/25 09:44:09;;;;;;;16.97;4.43;;;10.40;99.90;;;;;;5001748;28;20461;-67
2024/01/25 09:46:36;;;;;;;7.40;3.50;;;10.30;99.90;;;;;;5000174;28;20506;-67
2024/01/25 09:49:06;;;;;;;8.57;2.87;;;10.10;99.90;;;;;;4995649;28;20485;-67
2024/01/25 09:51:38;;;;;;;9.60;3.57;;;9.90;99.90;;;;;;4995400;28;20494;-67
2024/01/25 09:54:06;;;;;;;16.73;5.27;;;9.70;99.90;;;;;;5000116;28;21134;-68
2024/01/25 09:56:34;;;;;;;11.67;4.33;;;9.60;99.90;;;;;;5001941;28;21002;-67
2024/01/25 09:59:02;;;;;;;28.63;4.80;;;9.60;99.90;;;;;;4998501;28;20450;-67
2024/01/25 10:01:29;;;;;;;14.00;4.60;;;9.60;99.90;;;;;;4992436;28;20464;-68
2024/01/25 10:03:56;;;;;;;14.33;4.33;;;9.80;99.90;;;;;;5002324;28;20551;-68
2024/01/25 10:06:25;;;;;;;16.90;5.60;;;9.80;99.90;;;;;;4998286;28;20488;-67
2024/01/25 10:08:53;;;;;;;7.70;4.20;;;9.80;99.90;;;;;;4996495;28;20485;-67
2024/01/25 10:11:20;;;;;;;9.80;4.63;;;10.00;99.90;;;;;;4997460;28;20513;-67
2024/01/25 10:13:50;;;;;;;25.90;5.57;;;10.10;99.90;;;;;;4998017;28;20456;-67
2024/01/25 10:16:18;;;;;;;18.03;4.70;;;10.30;99.90;;;;;;5000275;28;20481;-67
2024/01/25 10:18:47;;;;;;;15.40;5.37;;;10.20;99.90;;;;;;4995846;28;20864;-67
2024/01/25 10:21:15;;;;;;;11.03;3.87;;;10.10;99.90;;;;;;4996378;28;20476;-67
2024/01/25 10:23:45;;;;;;;15.23;5.40;;;10.00;99.90;;;;;;4997924;28;20465;-67
2024/01/25 10:26:12;;;;;;;20.33;6.70;;;10.00;99.90;;;;;;4998216;28;20512;-67
2024/01/25 10:28:39;;;;;;;12.90;5.93;;;10.20;99.90;;;;;;4995891;28;20456;-67
2024/01/25 10:31:06;;;;;;;13.53;6.80;;;10.60;99.90;;;;;;4996349;28;20466;-67
2024/01/25 10:33:35;;;;;;;16.80;5.13;;;10.80;99.90;;;;;;4997539;28;20474;-68
2024/01/25 10:36:02;;;;;;;5.33;3.03;;;10.80;99.90;;;;;;4997345;28;20477;-69
2024/01/25 10:38:32;;;;;;;18.87;5.43;;;11.20;99.90;;;;;;5000667;28;20851;-68
2024/01/25 10:41:02;;;;;;;14.83;5.90;;;11.30;99.90;;;;;;4996659;28;20990;-67
2024/01/25 10:43:30;;;;;;;12.67;7.50;;;11.50;99.90;;;;;;4999251;28;20466;-67
2024/01/25 10:45:58;;;;;;;10.93;5.63;;;11.60;99.90;;;;;;4994686;28;20848;-67
2024/01/25 10:48:28;;;;;;;25.77;6.63;;;11.50;99.90;;;;;;4997195;28;20493;-67
2024/01/25 10:50:55;;;;;;;21.80;5.67;;;11.40;99.90;;;;;;4993712;28;20513;-67
2024/01/25 10:53:23;;;;;;;20.83;6.00;;;11.60;99.90;;;;;;4997048;28;20555;-67
2024/01/25 10:55:50;;;;;;;19.70;6.33;;;11.90;99.90;;;;;;4999781;28;20947;-67
2024/01/25 10:58:18;;;;;;;18.20;7.67;;;11.80;99.90;;;;;;4997629;28;20528;-68
2024/01/25 11:00:52;;;;;;;18.53;6.97;;;11.90;99.90;;;;;;4997742;28;20459;-68
2024/01/25 11:03:19;;;;;;;17.03;6.80;;;11.80;99.90;;;;;;5001145;28;20469;-68
2024/01/25 11:05:47;;;;;;;15.40;8.70;;;11.60;99.90;;;;;;4999148;28;20543;-69
2024/01/25 11:08:19;;;;;;;21.33;6.57;;;11.40;99.90;;;;;;5006264;28;20560;-68
2024/01/25 11:10:50;;;;;;;24.97;6.60;;;11.10;99.90;;;;;;4999298;28;20959;-68
2024/01/25 11:13:24;;;;;;;16.80;6.50;;;10.80;99.90;;;;;;5005365;28;20487;-68
2024/01/25 11:15:51;;;;;;;27.20;6.90;;;10.60;99.90;;;;;;5004179;28;20982;-68
2024/01/25 11:18:18;;;;;;;34.10;7.70;;;10.60;99.90;;;;;;5003717;28;20469;-68
2024/01/25 11:20:48;;;;;;;4.97;4.23;;;10.60;99.90;;;;;;5000922;28;21014;-68
2024/01/25 11:23:17;;;;;;;18.40;8.53;;;10.50;99.90;;;;;;5004941;28;20461;-68
2024/01/25 11:25:47;;;;;;;14.70;7.63;;;10.60;99.90;;;;;;4996875;28;20480;-68
2024/01/25 11:28:19;;;;;;;35.27;8.50;;;10.80;99.90;;;;;;5002108;28;20461;-68
2024/01/25 11:30:47;;;;;;;22.00;7.17;;;10.90;99.90;;;;;;5002336;28;20453;-68
2024/01/25 11:33:14;;;;;;;14.10;5.47;;;11.00;99.90;;;;;;5002629;28;20523;-68
2024/01/25 11:35:42;;;;;;;13.47;6.20;;;11.40;99.90;;;;;;4997169;28;20478;-68
2024/01/25 11:38:10;;;;;;;16.07;7.10;;;11.50;99.90;;;;;;4999138;28;20472;-68
2024/01/25 11:40:37;;;;;;;12.20;4.73;;;11.40;99.90;;;;;;5001668;28;20576;-68
2024/01/25 11:43:10;;;;;;;19.70;5.97;;;11.30;99.90;;;;;;5006380;28;20472;-68
2024/01/25 11:45:42;;;;;;;10.43;5.20;;;11.20;99.90;;;;;;4992000;28;20943;-68
2024/01/25 11:48:10;;;;;;;5.73;3.37;;;11.60;99.90;;;;;;4998840;28;20484;-68
2024/01/25 11:50:37;;;;;;;24.20;5.93;;;11.50;99.90;;;;;;5000776;28;20464;-68
2024/01/25 11:53:04;;;;;;;21.70;4.00;;;11.20;99.90;;;;;;4999696;28;21053;-68
2024/01/25 11:55:31;;;;;;;12.87;5.17;;;11.10;99.90;;;;;;4997437;28;20536;-68
2024/01/25 11:57:57;;;;;;;10.47;4.67;;;11.00;99.90;;;;;;4997238;28;20449;-68
2024/01/25 12:00:24;;;;;;;22.13;7.17;;;11.20;99.90;;;;;;4994140;28;20494;-68
2024/01/25 12:02:51;;;;;;;17.70;6.70;;;11.40;99.90;;;;;;4999828;28;20476;-68
2024/01/25 12:05:20;;;;;;;34.10;7.43;;;11.80;99.90;;;;;;4996677;28;20494;-68
2024/01/25 12:07:47;;;;;;;17.60;5.10;;;12.10;99.90;;;;;;4998962;28;20555;-68
2024/01/25 12:10:17;;;;;;;23.60;6.47;;;12.00;99.90;;;;;;4995484;28;20569;-68
2024/01/25 12:12:44;;;;;;;19.30;5.70;;;11.90;99.90;;;;;;4995073;28;20457;-68
2024/01/25 12:15:11;;;;;;;23.07;7.27;;;11.60;99.90;;;;;;4998981;28;20856;-68
2024/01/25 12:17:39;;;;;;;20.03;6.90;;;11.40;99.90;;;;;;4994820;28;20462;-67
2024/01/25 12:20:10;;;;;;;10.93;4.83;;;11.30;99.90;;;;;;5001238;28;20489;-67
2024/01/25 12:22:39;;;;;;;21.13;6.63;;;11.40;99.90;;;;;;5004382;28;20469;-68
2024/01/25 12:25:09;;;;;;;15.83;7.17;;;11.20;99.90;;;;;;4994972;28;20481;-67
2024/01/25 12:27:37;;;;;;;18.50;7.20;;;11.40;99.90;;;;;;4998444;28;20942;-68
2024/01/25 12:30:04;;;;;;;6.33;4.47;;;11.70;99.90;;;;;;4999667;28;21031;-67
2024/01/25 12:32:31;;;;;;;7.40;4.30;;;11.70;99.90;;;;;;4998689;28;20470;-68
2024/01/25 12:35:00;;;;;;;25.27;7.57;;;11.40;99.90;;;;;;4999454;28;20488;-68
2024/01/25 12:37:27;;;;;;;16.10;5.23;;;11.20;99.90;;;;;;5001322;28;20469;-68
2024/01/25 12:39:55;;;;;;;30.13;7.33;;;11.30;99.90;;;;;;4995317;28;20489;-67
2024/01/25 12:42:23;;;;;;;19.70;6.60;;;11.40;99.90;;;;;;4998128;28;20461;-67
2024/01/25 12:44:53;;;;;;;18.17;6.23;;;11.40;99.90;;;;;;4996547;28;20484;-68
2024/01/25 12:47:20;;;;;;;19.07;6.17;;;11.30;99.90;;;;;;5002210;28;20465;-67
2024/01/25 12:49:46;;;;;;;7.70;4.47;;;11.20;99.90;;;;;;4996269;28;20458;-68